sensor_id;sensor_type;location;lat;lon;timestamp;pressure;altitude;pressure_sealevel;temperature;humidity
61384;BME280;63511;49.346;8.798;2022-09-24T00:02:07;99974.97;;;12.97;95.05
61384;BME280;63511;49.346;8.798;2022-09-24T00:04:35;99966.91;;;13.04;95.03
61384;BME280;63511;49.346;8.798;2022-09-24T00:07:00;99968.66;;;13.05;95.03
61384;BME280;63511;49.346;8.798;2022-09-24T00:09:25;99959.06;;;13.00;95.18
61384;BME280;63511;49.346;8.798;2022-09-24T00:11:51;99961.75;;;13.03;94.90
61384;BME280;63511;49.346;8.798;2022-09-24T00:14:18;99960.72;;;12.83;95.61
61384;BME280;63511;49.346;8.798;2022-09-24T00:16:44;99969.81;;;12.96;95.39
61384;BME280;63511;49.346;8.798;2022-09-24T00:19:11;99964.75;;;12.96;95.58
61384;BME280;63511;49.346;8.798;2022-09-24T00:21:38;99963.19;;;12.98;95.24
61384;BME280;63511;49.346;8.798;2022-09-24T00:24:16;99967.22;;;12.78;96.87
61384;BME280;63511;49.346;8.798;2022-09-24T00:27:01;99960.31;;;12.92;96.21
61384;BME280;63511;49.346;8.798;2022-09-24T00:29:27;99954.78;;;12.99;95.77
61384;BME280;63511;49.346;8.798;2022-09-24T00:31:52;99954.94;;;12.69;97.51
61384;BME280;63511;49.346;8.798;2022-09-24T00:34:19;99960.56;;;12.64;98.76
61384;BME280;63511;49.346;8.798;2022-09-24T00:36:45;99952.81;;;12.77;97.88
61384;BME280;63511;49.346;8.798;2022-09-24T00:39:11;99943.09;;;12.85;97.40
61384;BME280;63511;49.346;8.798;2022-09-24T00:41:38;99938.94;;;12.87;97.13
61384;BME280;63511;49.346;8.798;2022-09-24T00:49:45;99916.38;;;12.91;97.19
61384;BME280;63511;49.346;8.798;2022-09-24T00:52:15;99915.16;;;13.01;96.78
61384;BME280;63511;49.346;8.798;2022-09-24T00:54:42;99924.13;;;13.10;96.38
61384;BME280;63511;49.346;8.798;2022-09-24T00:57:12;99925.38;;;13.02;96.78
61384;BME280;63511;49.346;8.798;2022-09-24T00:59:39;99914.38;;;13.02;97.24
61384;BME280;63511;49.346;8.798;2022-09-24T01:02:06;99909.00;;;12.96;97.08
61384;BME280;63511;49.346;8.798;2022-09-24T01:04:31;99893.41;;;13.04;96.12
61384;BME280;63511;49.346;8.798;2022-09-24T01:06:59;99896.31;;;13.12;95.73
61384;BME280;63511;49.346;8.798;2022-09-24T01:09:27;99901.94;;;13.23;95.27
61384;BME280;63511;49.346;8.798;2022-09-24T01:30:56;99882.53;;;13.07;95.23
61384;BME280;63511;49.346;8.798;2022-09-24T01:33:26;99883.97;;;13.02;95.62
61384;BME280;63511;49.346;8.798;2022-09-24T01:35:59;99881.72;;;13.08;94.97
61384;BME280;63511;49.346;8.798;2022-09-24T01:38:34;99886.94;;;13.11;94.56
61384;BME280;63511;49.346;8.798;2022-09-24T01:41:03;99882.22;;;13.01;94.93
61384;BME280;63511;49.346;8.798;2022-09-24T01:43:31;99886.34;;;12.99;95.20
61384;BME280;63511;49.346;8.798;2022-09-24T01:46:00;99873.94;;;12.87;95.43
61384;BME280;63511;49.346;8.798;2022-09-24T01:48:27;99875.22;;;12.79;95.63
61384;BME280;63511;49.346;8.798;2022-09-24T01:51:03;99874.41;;;12.80;95.65
61384;BME280;63511;49.346;8.798;2022-09-24T01:53:35;99877.03;;;12.82;95.31
61384;BME280;63511;49.346;8.798;2022-09-24T01:56:07;99877.84;;;12.48;96.21
61384;BME280;63511;49.346;8.798;2022-09-24T01:58:47;99868.31;;;12.60;95.79
61384;BME280;63511;49.346;8.798;2022-09-24T02:01:22;99864.53;;;12.52;95.50
61384;BME280;63511;49.346;8.798;2022-09-24T02:03:55;99866.91;;;12.49;95.54
61384;BME280;63511;49.346;8.798;2022-09-24T02:06:29;99867.06;;;12.36;94.73
61384;BME280;63511;49.346;8.798;2022-09-24T02:08:59;99863.56;;;12.34;94.91
61384;BME280;63511;49.346;8.798;2022-09-24T02:11:25;99852.50;;;12.32;94.96
61384;BME280;63511;49.346;8.798;2022-09-24T02:16:59;99841.75;;;12.52;92.85
61384;BME280;63511;49.346;8.798;2022-09-24T02:19:28;99839.53;;;12.42;93.97
61384;BME280;63511;49.346;8.798;2022-09-24T02:21:55;99840.47;;;12.44;93.34
61384;BME280;63511;49.346;8.798;2022-09-24T02:24:27;99846.34;;;12.43;92.83
61384;BME280;63511;49.346;8.798;2022-09-24T02:26:58;99849.81;;;12.29;92.70
61384;BME280;63511;49.346;8.798;2022-09-24T02:29:24;99839.84;;;12.16;93.67
61384;BME280;63511;49.346;8.798;2022-09-24T02:31:53;99851.78;;;12.18;92.34
61384;BME280;63511;49.346;8.798;2022-09-24T02:34:24;99844.03;;;12.15;91.69
61384;BME280;63511;49.346;8.798;2022-09-24T02:36:59;99850.75;;;12.15;92.17
61384;BME280;63511;49.346;8.798;2022-09-24T02:39:28;99849.69;;;11.95;93.69
61384;BME280;63511;49.346;8.798;2022-09-24T02:41:53;99858.16;;;11.96;92.99
61384;BME280;63511;49.346;8.798;2022-09-24T02:44:19;99858.28;;;11.82;92.11
61384;BME280;63511;49.346;8.798;2022-09-24T02:46:45;99853.06;;;11.79;93.32
61384;BME280;63511;49.346;8.798;2022-09-24T02:49:14;99853.75;;;11.77;93.08
61384;BME280;63511;49.346;8.798;2022-09-24T02:51:40;99846.34;;;11.65;93.21
61384;BME280;63511;49.346;8.798;2022-09-24T02:54:07;99850.44;;;11.63;93.10
61384;BME280;63511;49.346;8.798;2022-09-24T02:56:35;99853.53;;;11.43;93.85
61384;BME280;63511;49.346;8.798;2022-09-24T02:59:01;99844.75;;;11.22;95.48
61384;BME280;63511;49.346;8.798;2022-09-24T03:01:28;99849.00;;;11.23;95.35
61384;BME280;63511;49.346;8.798;2022-09-24T03:03:53;99860.59;;;11.34;95.02
61384;BME280;63511;49.346;8.798;2022-09-24T03:06:19;99861.53;;;11.36;93.24
61384;BME280;63511;49.346;8.798;2022-09-24T03:08:44;99869.41;;;11.26;93.24
61384;BME280;63511;49.346;8.798;2022-09-24T03:11:10;99863.66;;;11.28;94.05
61384;BME280;63511;49.346;8.798;2022-09-24T03:13:36;99858.66;;;11.30;93.84
61384;BME280;63511;49.346;8.798;2022-09-24T03:16:03;99860.84;;;10.94;94.75
61384;BME280;63511;49.346;8.798;2022-09-24T03:18:31;99863.06;;;11.03;94.82
61384;BME280;63511;49.346;8.798;2022-09-24T03:21:01;99868.38;;;11.07;94.41
61384;BME280;63511;49.346;8.798;2022-09-24T03:23:27;99856.78;;;11.11;94.63
61384;BME280;63511;49.346;8.798;2022-09-24T03:25:53;99851.63;;;11.09;94.34
61384;BME280;63511;49.346;8.798;2022-09-24T03:28:19;99852.84;;;11.16;94.16
61384;BME280;63511;49.346;8.798;2022-09-24T03:30:44;99848.81;;;11.20;93.95
61384;BME280;63511;49.346;8.798;2022-09-24T03:33:27;99851.63;;;11.09;94.07
61384;BME280;63511;49.346;8.798;2022-09-24T03:38:38;99834.38;;;11.02;94.34
61384;BME280;63511;49.346;8.798;2022-09-24T03:41:05;99830.72;;;11.12;93.94
61384;BME280;63511;49.346;8.798;2022-09-24T03:43:31;99834.19;;;11.14;93.69
61384;BME280;63511;49.346;8.798;2022-09-24T03:46:02;99831.41;;;11.09;94.06
61384;BME280;63511;49.346;8.798;2022-09-24T03:48:28;99827.16;;;11.08;95.02
61384;BME280;63511;49.346;8.798;2022-09-24T03:50:55;99826.88;;;11.19;95.13
61384;BME280;63511;49.346;8.798;2022-09-24T03:53:21;99816.94;;;11.22;94.15
61384;BME280;63511;49.346;8.798;2022-09-24T03:55:54;99827.41;;;11.13;94.72
61384;BME280;63511;49.346;8.798;2022-09-24T03:58:22;99817.91;;;11.24;94.40
61384;BME280;63511;49.346;8.798;2022-09-24T04:00:50;99814.66;;;11.26;93.78
61384;BME280;63511;49.346;8.798;2022-09-24T04:03:16;99814.41;;;11.22;94.42
61384;BME280;63511;49.346;8.798;2022-09-24T04:05:41;99811.00;;;11.21;93.77
61384;BME280;63511;49.346;8.798;2022-09-24T04:08:09;99813.09;;;11.28;93.77
61384;BME280;63511;49.346;8.798;2022-09-24T04:10:36;99813.38;;;11.18;94.31
61384;BME280;63511;49.346;8.798;2022-09-24T04:13:01;99820.44;;;11.24;93.81
61384;BME280;63511;49.346;8.798;2022-09-24T04:15:29;99819.03;;;11.29;93.43
61384;BME280;63511;49.346;8.798;2022-09-24T04:17:57;99820.16;;;11.34;93.15
61384;BME280;63511;49.346;8.798;2022-09-24T04:20:25;99825.03;;;11.16;94.05
61384;BME280;63511;49.346;8.798;2022-09-24T04:22:53;99822.25;;;11.12;93.83
61384;BME280;63511;49.346;8.798;2022-09-24T04:25:19;99818.69;;;11.08;93.01
61384;BME280;63511;49.346;8.798;2022-09-24T04:27:52;99821.81;;;11.04;93.39
61384;BME280;63511;49.346;8.798;2022-09-24T04:30:21;99816.75;;;11.04;93.74
61384;BME280;63511;49.346;8.798;2022-09-24T04:32:50;99812.31;;;11.00;94.04
61384;BME280;63511;49.346;8.798;2022-09-24T04:35:25;99812.47;;;10.59;97.70
61384;BME280;63511;49.346;8.798;2022-09-24T04:37:53;99799.97;;;10.90;96.15
61384;BME280;63511;49.346;8.798;2022-09-24T04:40:20;99800.75;;;11.03;94.87
61384;BME280;63511;49.346;8.798;2022-09-24T04:42:46;99812.31;;;11.15;94.44
61384;BME280;63511;49.346;8.798;2022-09-24T04:45:14;99817.13;;;11.10;93.98
61384;BME280;63511;49.346;8.798;2022-09-24T04:47:45;99811.81;;;11.05;92.96
61384;BME280;63511;49.346;8.798;2022-09-24T04:50:11;99820.50;;;11.11;93.50
61384;BME280;63511;49.346;8.798;2022-09-24T04:52:39;99810.41;;;11.11;92.77
61384;BME280;63511;49.346;8.798;2022-09-24T04:55:05;99806.75;;;11.05;92.92
61384;BME280;63511;49.346;8.798;2022-09-24T04:57:30;99804.94;;;11.03;93.08
61384;BME280;63511;49.346;8.798;2022-09-24T05:00:03;99802.84;;;10.96;93.20
61384;BME280;63511;49.346;8.798;2022-09-24T05:02:29;99804.41;;;10.94;92.90
61384;BME280;63511;49.346;8.798;2022-09-24T05:04:54;99810.84;;;10.89;93.29
61384;BME280;63511;49.346;8.798;2022-09-24T05:07:19;99806.75;;;10.91;93.23
61384;BME280;63511;49.346;8.798;2022-09-24T05:09:45;99815.38;;;10.94;93.14
61384;BME280;63511;49.346;8.798;2022-09-24T05:12:10;99817.75;;;10.91;93.29
61384;BME280;63511;49.346;8.798;2022-09-24T05:14:35;99819.66;;;10.81;93.14
61384;BME280;63511;49.346;8.798;2022-09-24T05:17:01;99822.19;;;10.81;93.56
61384;BME280;63511;49.346;8.798;2022-09-24T05:19:28;99822.41;;;10.56;94.99
61384;BME280;63511;49.346;8.798;2022-09-24T05:21:57;99817.13;;;10.66;96.29
61384;BME280;63511;49.346;8.798;2022-09-24T05:24:25;99818.59;;;10.77;95.46
61384;BME280;63511;49.346;8.798;2022-09-24T05:26:53;99811.72;;;10.75;96.79
61384;BME280;63511;49.346;8.798;2022-09-24T05:29:37;99811.28;;;10.96;95.42
61384;BME280;63511;49.346;8.798;2022-09-24T05:32:07;99821.31;;;10.95;96.09
61384;BME280;63511;49.346;8.798;2022-09-24T05:34:33;99821.50;;;10.98;96.02
61384;BME280;63511;49.346;8.798;2022-09-24T05:36:59;99823.66;;;11.06;95.12
61384;BME280;63511;49.346;8.798;2022-09-24T05:39:26;99824.16;;;11.16;94.70
61384;BME280;63511;49.346;8.798;2022-09-24T05:41:51;99829.13;;;11.14;95.11
61384;BME280;63511;49.346;8.798;2022-09-24T05:44:16;99829.56;;;11.22;96.18
61384;BME280;63511;49.346;8.798;2022-09-24T05:46:48;99836.25;;;11.36;94.38
61384;BME280;63511;49.346;8.798;2022-09-24T05:49:16;99836.59;;;11.42;94.39
61384;BME280;63511;49.346;8.798;2022-09-24T05:51:42;99839.56;;;11.49;94.45
61384;BME280;63511;49.346;8.798;2022-09-24T05:54:10;99839.47;;;11.48;93.60
61384;BME280;63511;49.346;8.798;2022-09-24T05:56:36;99836.84;;;11.46;94.28
61384;BME280;63511;49.346;8.798;2022-09-24T05:59:04;99831.28;;;11.52;93.50
61384;BME280;63511;49.346;8.798;2022-09-24T06:01:29;99837.66;;;11.60;93.55
61384;BME280;63511;49.346;8.798;2022-09-24T06:03:55;99849.56;;;11.63;93.72
61384;BME280;63511;49.346;8.798;2022-09-24T06:06:26;99846.34;;;11.80;93.48
61384;BME280;63511;49.346;8.798;2022-09-24T06:08:54;99839.44;;;11.77;93.71
61384;BME280;63511;49.346;8.798;2022-09-24T06:11:20;99828.97;;;11.86;93.38
61384;BME280;63511;49.346;8.798;2022-09-24T06:13:51;99835.50;;;11.82;93.99
61384;BME280;63511;49.346;8.798;2022-09-24T06:16:21;99835.66;;;12.16;92.95
61384;BME280;63511;49.346;8.798;2022-09-24T06:18:46;99841.19;;;12.25;92.49
61384;BME280;63511;49.346;8.798;2022-09-24T06:21:14;99846.59;;;11.84;93.23
61384;BME280;63511;49.346;8.798;2022-09-24T06:23:41;99849.00;;;12.14;93.65
61384;BME280;63511;49.346;8.798;2022-09-24T06:26:09;99846.81;;;12.36;93.00
61384;BME280;63511;49.346;8.798;2022-09-24T06:28:36;99854.31;;;12.51;92.04
61384;BME280;63511;49.346;8.798;2022-09-24T06:31:01;99849.66;;;12.58;91.40
61384;BME280;63511;49.346;8.798;2022-09-24T06:33:27;99853.75;;;12.72;91.38
61384;BME280;63511;49.346;8.798;2022-09-24T06:35:58;99854.94;;;12.79;90.79
61384;BME280;63511;49.346;8.798;2022-09-24T06:38:24;99848.38;;;12.83;90.38
61384;BME280;63511;49.346;8.798;2022-09-24T06:40:50;99863.44;;;12.63;90.18
61384;BME280;63511;49.346;8.798;2022-09-24T06:43:15;99877.03;;;12.65;90.81
61384;BME280;63511;49.346;8.798;2022-09-24T06:45:42;99864.84;;;12.74;91.22
61384;BME280;63511;49.346;8.798;2022-09-24T06:48:10;99861.38;;;12.72;92.11
61384;BME280;63511;49.346;8.798;2022-09-24T06:50:42;99860.72;;;12.44;92.97
61384;BME280;63511;49.346;8.798;2022-09-24T06:53:09;99859.84;;;12.76;93.02
61384;BME280;63511;49.346;8.798;2022-09-24T06:55:35;99856.88;;;13.01;92.20
61384;BME280;63511;49.346;8.798;2022-09-24T07:00:35;99862.13;;;12.88;92.52
61384;BME280;63511;49.346;8.798;2022-09-24T07:03:03;99860.66;;;13.09;91.81
61384;BME280;63511;49.346;8.798;2022-09-24T07:05:29;99873.16;;;13.06;91.28
61384;BME280;63511;49.346;8.798;2022-09-24T07:07:57;99866.16;;;13.34;91.15
61384;BME280;63511;49.346;8.798;2022-09-24T07:10:25;99856.88;;;13.52;90.43
61384;BME280;63511;49.346;8.798;2022-09-24T07:12:51;99863.50;;;13.67;89.38
61384;BME280;63511;49.346;8.798;2022-09-24T07:15:16;99863.94;;;13.76;89.18
61384;BME280;63511;49.346;8.798;2022-09-24T07:17:42;99870.47;;;13.71;89.72
61384;BME280;63511;49.346;8.798;2022-09-24T07:20:07;99865.72;;;13.78;89.15
61384;BME280;63511;49.346;8.798;2022-09-24T07:22:39;99863.66;;;14.24;88.98
61384;BME280;63511;49.346;8.798;2022-09-24T07:25:11;99869.03;;;14.13;88.00
61384;BME280;63511;49.346;8.798;2022-09-24T07:27:38;99870.09;;;13.81;89.49
61384;BME280;63511;49.346;8.798;2022-09-24T07:30:05;99862.72;;;14.04;88.36
61384;BME280;63511;49.346;8.798;2022-09-24T07:32:31;99875.41;;;14.22;88.23
61384;BME280;63511;49.346;8.798;2022-09-24T07:34:58;99873.25;;;13.94;88.92
61384;BME280;63511;49.346;8.798;2022-09-24T07:37:24;99866.06;;;14.40;87.95
61384;BME280;63511;49.346;8.798;2022-09-24T07:39:49;99865.00;;;13.98;90.62
61384;BME280;63511;49.346;8.798;2022-09-24T07:42:15;99859.06;;;13.98;90.47
61384;BME280;63511;49.346;8.798;2022-09-24T07:44:40;99861.88;;;14.04;91.10
61384;BME280;63511;49.346;8.798;2022-09-24T07:47:05;99867.19;;;13.91;91.21
61384;BME280;63511;49.346;8.798;2022-09-24T07:49:33;99858.97;;;13.96;91.92
61384;BME280;63511;49.346;8.798;2022-09-24T07:52:02;99858.22;;;13.99;91.92
61384;BME280;63511;49.346;8.798;2022-09-24T07:54:27;99857.38;;;13.98;91.34
61384;BME280;63511;49.346;8.798;2022-09-24T07:56:55;99859.00;;;14.16;90.93
61384;BME280;63511;49.346;8.798;2022-09-24T07:59:21;99856.19;;;14.46;89.70
61384;BME280;63511;49.346;8.798;2022-09-24T08:01:46;99863.97;;;14.50;89.07
61384;BME280;63511;49.346;8.798;2022-09-24T08:04:14;99858.53;;;14.80;88.47
61384;BME280;63511;49.346;8.798;2022-09-24T08:06:39;99857.50;;;14.77;87.70
61384;BME280;63511;49.346;8.798;2022-09-24T08:09:05;99866.47;;;14.88;88.09
61384;BME280;63511;49.346;8.798;2022-09-24T08:11:31;99872.16;;;15.43;86.15
61384;BME280;63511;49.346;8.798;2022-09-24T08:13:57;99881.56;;;15.25;84.81
61384;BME280;63511;49.346;8.798;2022-09-24T08:16:28;99898.06;;;15.54;86.42
61384;BME280;63511;49.346;8.798;2022-09-24T08:18:53;99884.00;;;16.06;84.97
61384;BME280;63511;49.346;8.798;2022-09-24T08:21:21;99888.75;;;16.42;83.38
61384;BME280;63511;49.346;8.798;2022-09-24T08:23:47;99876.81;;;15.96;82.48
61384;BME280;63511;49.346;8.798;2022-09-24T08:26:13;99876.31;;;16.05;83.69
61384;BME280;63511;49.346;8.798;2022-09-24T08:28:39;99876.47;;;16.55;81.24
61384;BME280;63511;49.346;8.798;2022-09-24T08:31:10;99878.34;;;16.60;79.67
61384;BME280;63511;49.346;8.798;2022-09-24T08:33:41;99869.94;;;16.86;79.47
61384;BME280;63511;49.346;8.798;2022-09-24T08:36:10;99862.06;;;17.04;78.56
61384;BME280;63511;49.346;8.798;2022-09-24T08:38:38;99869.50;;;17.23;77.89
61384;BME280;63511;49.346;8.798;2022-09-24T08:44:03;99854.69;;;17.13;77.77
61384;BME280;63511;49.346;8.798;2022-09-24T08:46:42;99854.91;;;17.19;78.69
61384;BME280;63511;49.346;8.798;2022-09-24T08:49:34;99851.44;;;17.69;77.23
61384;BME280;63511;49.346;8.798;2022-09-24T08:52:23;99856.41;;;17.64;76.60
61384;BME280;63511;49.346;8.798;2022-09-24T08:54:53;99858.16;;;16.89;77.91
61384;BME280;63511;49.346;8.798;2022-09-24T08:57:29;99864.22;;;17.69;76.54
61384;BME280;63511;49.346;8.798;2022-09-24T09:00:03;99864.47;;;17.24;77.83
61384;BME280;63511;49.346;8.798;2022-09-24T09:07:30;99862.22;;;17.87;76.08
61384;BME280;63511;49.346;8.798;2022-09-24T09:10:07;99866.69;;;17.67;75.26
61384;BME280;63511;49.346;8.798;2022-09-24T09:12:41;99872.66;;;17.66;74.49
61384;BME280;63511;49.346;8.798;2022-09-24T09:15:12;99866.91;;;17.73;73.92
61384;BME280;63511;49.346;8.798;2022-09-24T09:20:20;99864.94;;;17.65;75.05
61384;BME280;63511;49.346;8.798;2022-09-24T09:22:49;99875.97;;;17.64;73.29
61384;BME280;63511;49.346;8.798;2022-09-24T09:25:25;99874.00;;;18.10;73.86
61384;BME280;63511;49.346;8.798;2022-09-24T09:28:18;99869.81;;;18.72;73.19
61384;BME280;63511;49.346;8.798;2022-09-24T09:33:59;99874.63;;;18.32;71.03
61384;BME280;63511;49.346;8.798;2022-09-24T09:37:07;99863.91;;;18.15;71.59
61384;BME280;63511;49.346;8.798;2022-09-24T09:42:33;99866.06;;;18.91;70.78
61384;BME280;63511;49.346;8.798;2022-09-24T09:45:17;99864.19;;;19.17;69.89
61384;BME280;63511;49.346;8.798;2022-09-24T09:47:58;99873.31;;;18.46;69.40
61384;BME280;63511;49.346;8.798;2022-09-24T09:50:35;99873.53;;;18.83;68.81
61384;BME280;63511;49.346;8.798;2022-09-24T09:53:02;99870.78;;;19.08;70.67
61384;BME280;63511;49.346;8.798;2022-09-24T09:55:34;99870.03;;;18.81;70.91
61384;BME280;63511;49.346;8.798;2022-09-24T09:58:21;99871.13;;;18.89;70.53
61384;BME280;63511;49.346;8.798;2022-09-24T10:00:47;99858.50;;;19.30;69.90
61384;BME280;63511;49.346;8.798;2022-09-24T10:03:44;99854.84;;;19.53;68.76
61384;BME280;63511;49.346;8.798;2022-09-24T10:06:34;99846.47;;;19.60;67.53
61384;BME280;63511;49.346;8.798;2022-09-24T10:09:15;99851.72;;;18.97;68.20
61384;BME280;63511;49.346;8.798;2022-09-24T10:11:41;99848.44;;;19.36;69.27
61384;BME280;63511;49.346;8.798;2022-09-24T10:14:14;99844.44;;;19.84;67.16
61384;BME280;63511;49.346;8.798;2022-09-24T10:16:46;99837.53;;;19.79;66.39
61384;BME280;63511;49.346;8.798;2022-09-24T10:19:15;99836.97;;;19.56;68.20
61384;BME280;63511;49.346;8.798;2022-09-24T10:21:43;99832.09;;;19.67;68.03
61384;BME280;63511;49.346;8.798;2022-09-24T10:24:18;99836.50;;;19.36;68.65
61384;BME280;63511;49.346;8.798;2022-09-24T10:26:45;99835.19;;;19.52;69.68
61384;BME280;63511;49.346;8.798;2022-09-24T10:29:17;99838.13;;;19.34;71.00
61384;BME280;63511;49.346;8.798;2022-09-24T10:32:04;99838.16;;;19.69;69.55
61384;BME280;63511;49.346;8.798;2022-09-24T10:34:32;99829.81;;;19.43;70.44
61384;BME280;63511;49.346;8.798;2022-09-24T10:37:03;99840.81;;;19.75;70.08
61384;BME280;63511;49.346;8.798;2022-09-24T10:39:32;99836.34;;;20.04;69.83
61384;BME280;63511;49.346;8.798;2022-09-24T10:42:00;99835.84;;;20.21;68.96
61384;BME280;63511;49.346;8.798;2022-09-24T10:44:34;99830.47;;;19.69;69.30
61384;BME280;63511;49.346;8.798;2022-09-24T10:47:22;99825.72;;;19.49;70.29
61384;BME280;63511;49.346;8.798;2022-09-24T10:57:58;99830.56;;;20.54;67.04
61384;BME280;63511;49.346;8.798;2022-09-24T11:03:51;99820.94;;;19.65;68.33
61384;BME280;63511;49.346;8.798;2022-09-24T11:20:46;99828.50;;;20.82;65.34
61384;BME280;63511;49.346;8.798;2022-09-24T11:23:20;99829.75;;;20.15;68.17
61384;BME280;63511;49.346;8.798;2022-09-24T11:29:14;99825.69;;;21.16;66.38
61384;BME280;63511;49.346;8.798;2022-09-24T11:51:25;99803.06;;;20.49;66.67
61384;BME280;63511;49.346;8.798;2022-09-24T11:53:58;99796.94;;;20.41;67.98
61384;BME280;63511;49.346;8.798;2022-09-24T11:56:30;99802.50;;;20.21;66.92
61384;BME280;63511;49.346;8.798;2022-09-24T11:59:18;99806.94;;;20.72;68.47
61384;BME280;63511;49.346;8.798;2022-09-24T12:01:49;99802.34;;;21.02;66.32
61384;BME280;63511;49.346;8.798;2022-09-24T12:04:43;99799.19;;;21.17;65.97
61384;BME280;63511;49.346;8.798;2022-09-24T12:07:19;99798.00;;;21.00;66.38
61384;BME280;63511;49.346;8.798;2022-09-24T12:09:57;99794.72;;;20.59;66.72
61384;BME280;63511;49.346;8.798;2022-09-24T12:12:30;99797.78;;;20.40;67.38
61384;BME280;63511;49.346;8.798;2022-09-24T12:15:08;99782.22;;;20.32;67.30
61384;BME280;63511;49.346;8.798;2022-09-24T12:17:44;99789.66;;;20.62;67.89
61384;BME280;63511;49.346;8.798;2022-09-24T12:20:19;99783.59;;;21.08;66.26
61384;BME280;63511;49.346;8.798;2022-09-24T12:22:49;99780.44;;;21.23;64.89
61384;BME280;63511;49.346;8.798;2022-09-24T12:25:16;99779.72;;;21.33;65.04
61384;BME280;63511;49.346;8.798;2022-09-24T12:27:42;99789.91;;;21.85;65.54
61384;BME280;63511;49.346;8.798;2022-09-24T12:30:33;99789.16;;;20.83;64.70
61384;BME280;63511;49.346;8.798;2022-09-24T12:33:43;99776.25;;;21.29;66.11
61384;BME280;63511;49.346;8.798;2022-09-24T12:36:18;99783.06;;;21.87;63.82
61384;BME280;63511;49.346;8.798;2022-09-24T12:38:50;99782.91;;;21.77;63.99
61384;BME280;63511;49.346;8.798;2022-09-24T12:41:39;99783.03;;;21.24;65.88
61384;BME280;63511;49.346;8.798;2022-09-24T12:46:38;99778.84;;;21.92;61.93
61384;BME280;63511;49.346;8.798;2022-09-24T12:51:51;99757.84;;;22.28;61.35
61384;BME280;63511;49.346;8.798;2022-09-24T12:54:28;99758.22;;;22.63;62.57
61384;BME280;63511;49.346;8.798;2022-09-24T12:57:10;99766.50;;;22.32;60.30
61384;BME280;63511;49.346;8.798;2022-09-24T12:59:47;99767.81;;;22.76;61.04
61384;BME280;63511;49.346;8.798;2022-09-24T13:02:16;99768.78;;;22.91;61.08
61384;BME280;63511;49.346;8.798;2022-09-24T13:07:36;99764.44;;;22.82;61.05
61384;BME280;63511;49.346;8.798;2022-09-24T13:12:39;99762.69;;;22.81;62.07
61384;BME280;63511;49.346;8.798;2022-09-24T13:15:07;99746.47;;;22.90;60.51
61384;BME280;63511;49.346;8.798;2022-09-24T13:17:34;99756.75;;;22.86;60.67
61384;BME280;63511;49.346;8.798;2022-09-24T13:20:05;99754.13;;;22.82;60.62
61384;BME280;63511;49.346;8.798;2022-09-24T13:22:34;99751.41;;;22.70;59.66
61384;BME280;63511;49.346;8.798;2022-09-24T13:27:36;99753.03;;;22.59;60.97
61384;BME280;63511;49.346;8.798;2022-09-24T13:30:18;99751.25;;;22.52;61.38
61384;BME280;63511;49.346;8.798;2022-09-24T13:35:23;99749.25;;;22.25;63.02
61384;BME280;63511;49.346;8.798;2022-09-24T13:38:06;99742.31;;;22.18;63.51
61384;BME280;63511;49.346;8.798;2022-09-24T13:40:38;99749.31;;;22.28;62.36
61384;BME280;63511;49.346;8.798;2022-09-24T13:43:16;99746.63;;;22.20;63.11
61384;BME280;63511;49.346;8.798;2022-09-24T13:45:44;99754.25;;;22.13;62.83
61384;BME280;63511;49.346;8.798;2022-09-24T13:48:27;99749.97;;;22.12;62.69
61384;BME280;63511;49.346;8.798;2022-09-24T13:50:55;99746.72;;;22.28;61.95
61384;BME280;63511;49.346;8.798;2022-09-24T13:53:33;99737.34;;;22.33;62.40
61384;BME280;63511;49.346;8.798;2022-09-24T13:56:04;99750.19;;;22.31;61.88
61384;BME280;63511;49.346;8.798;2022-09-24T13:58:36;99745.84;;;22.29;62.76
61384;BME280;63511;49.346;8.798;2022-09-24T14:01:21;99746.63;;;22.20;63.09
61384;BME280;63511;49.346;8.798;2022-09-24T14:03:56;99742.59;;;22.45;62.85
61384;BME280;63511;49.346;8.798;2022-09-24T14:06:34;99744.25;;;22.40;63.34
61384;BME280;63511;49.346;8.798;2022-09-24T14:09:01;99744.09;;;20.98;65.15
61384;BME280;63511;49.346;8.798;2022-09-24T14:11:27;99744.31;;;21.72;65.05
61384;BME280;63511;49.346;8.798;2022-09-24T14:13:55;99744.75;;;22.06;63.71
61384;BME280;63511;49.346;8.798;2022-09-24T14:16:24;99733.84;;;22.29;63.02
61384;BME280;63511;49.346;8.798;2022-09-24T14:19:04;99735.56;;;22.29;62.89
61384;BME280;63511;49.346;8.798;2022-09-24T14:21:42;99728.72;;;22.28;62.34
61384;BME280;63511;49.346;8.798;2022-09-24T14:24:22;99722.97;;;22.56;62.17
61384;BME280;63511;49.346;8.798;2022-09-24T14:29:23;99729.84;;;22.57;62.33
61384;BME280;63511;49.346;8.798;2022-09-24T14:31:57;99727.28;;;22.60;60.92
61384;BME280;63511;49.346;8.798;2022-09-24T14:34:36;99732.19;;;22.34;61.90
61384;BME280;63511;49.346;8.798;2022-09-24T14:37:18;99719.47;;;22.46;61.83
61384;BME280;63511;49.346;8.798;2022-09-24T14:39:57;99723.81;;;22.55;62.18
61384;BME280;63511;49.346;8.798;2022-09-24T14:42:39;99721.44;;;22.72;61.88
61384;BME280;63511;49.346;8.798;2022-09-24T14:45:07;99715.47;;;22.74;61.16
61384;BME280;63511;49.346;8.798;2022-09-24T14:47:36;99716.09;;;22.55;62.39
61384;BME280;63511;49.346;8.798;2022-09-24T14:50:25;99705.06;;;22.67;60.75
61384;BME280;63511;49.346;8.798;2022-09-24T14:52:56;99710.97;;;22.57;61.56
61384;BME280;63511;49.346;8.798;2022-09-24T14:55:41;99704.63;;;22.21;61.29
61384;BME280;63511;49.346;8.798;2022-09-24T15:00:53;99721.94;;;22.39;61.76
61384;BME280;63511;49.346;8.798;2022-09-24T15:03:36;99713.03;;;22.05;62.37
61384;BME280;63511;49.346;8.798;2022-09-24T15:08:59;99708.41;;;21.80;63.45
61384;BME280;63511;49.346;8.798;2022-09-24T15:11:30;99710.16;;;21.81;63.72
61384;BME280;63511;49.346;8.798;2022-09-24T15:16:49;99708.66;;;21.32;65.31
61384;BME280;63511;49.346;8.798;2022-09-24T15:19:18;99702.19;;;21.04;68.42
61384;BME280;63511;49.346;8.798;2022-09-24T15:21:50;99702.16;;;21.01;67.13
61384;BME280;63511;49.346;8.798;2022-09-24T15:24:19;99701.28;;;20.97;66.73